sensor_id;sensor_type;location;lat;lon;timestamp;temperature;humidity
3684;DHT22;1858;48.716;9.648;2022-11-20T00:00:04;8.40;1.00
3684;DHT22;1858;48.716;9.648;2022-11-20T00:02:33;8.50;1.00
3684;DHT22;1858;48.716;9.648;2022-11-20T00:05:01;8.30;1.00
3684;DHT22;1858;48.716;9.648;2022-11-20T00:07:30;8.30;1.00
3684;DHT22;1858;48.716;9.648;2022-11-20T00:09:58;8.20;1.00
3684;DHT22;1858;48.716;9.648;2022-11-20T00:12:26;8.20;1.00
3684;DHT22;1858;48.716;9.648;2022-11-20T00:14:55;8.00;1.00
3684;DHT22;1858;48.716;9.648;2022-11-20T00:17:23;7.90;1.00
3684;DHT22;1858;48.716;9.648;2022-11-20T00:19:51;7.80;1.00
3684;DHT22;1858;48.716;9.648;2022-11-20T00:22:20;7.60;1.00
3684;DHT22;1858;48.716;9.648;2022-11-20T00:24:48;7.50;1.00
3684;DHT22;1858;48.716;9.648;2022-11-20T00:27:16;7.50;1.00
3684;DHT22;1858;48.716;9.648;2022-11-20T00:30:04;7.40;1.00
3684;DHT22;1858;48.716;9.648;2022-11-20T00:32:33;7.30;1.00
3684;DHT22;1858;48.716;9.648;2022-11-20T00:35:01;7.20;1.00
3684;DHT22;1858;48.716;9.648;2022-11-20T00:37:29;7.20;1.00
3684;DHT22;1858;48.716;9.648;2022-11-20T00:39:58;7.10;1.00
3684;DHT22;1858;48.716;9.648;2022-11-20T00:42:26;7.10;1.00
3684;DHT22;1858;48.716;9.648;2022-11-20T00:44:54;7.00;1.00
3684;DHT22;1858;48.716;9.648;2022-11-20T00:47:23;6.90;1.00
3684;DHT22;1858;48.716;9.648;2022-11-20T00:49:51;6.90;1.00
3684;DHT22;1858;48.716;9.648;2022-11-20T00:52:19;6.80;1.00
3684;DHT22;1858;48.716;9.648;2022-11-20T00:54:48;6.70;1.00
3684;DHT22;1858;48.716;9.648;2022-11-20T00:57:16;6.70;1.00
3684;DHT22;1858;48.716;9.648;2022-11-20T00:59:45;6.60;1.00
3684;DHT22;1858;48.716;9.648;2022-11-20T01:02:13;6.50;1.00
3684;DHT22;1858;48.716;9.648;2022-11-20T01:04:43;6.40;1.00
3684;DHT22;1858;48.716;9.648;2022-11-20T01:07:11;6.40;60.60
3684;DHT22;1858;48.716;9.648;2022-11-20T01:09:40;6.40;99.90
3684;DHT22;1858;48.716;9.648;2022-11-20T01:12:08;6.40;99.90
3684;DHT22;1858;48.716;9.648;2022-11-20T01:14:57;6.30;99.90
3684;DHT22;1858;48.716;9.648;2022-11-20T01:17:26;6.30;99.90
3684;DHT22;1858;48.716;9.648;2022-11-20T01:19:54;6.30;99.90
3684;DHT22;1858;48.716;9.648;2022-11-20T01:22:22;6.40;99.90
3684;DHT22;1858;48.716;9.648;2022-11-20T01:24:51;6.40;99.90
3684;DHT22;1858;48.716;9.648;2022-11-20T01:27:19;6.50;99.90
3684;DHT22;1858;48.716;9.648;2022-11-20T01:29:48;6.50;99.90
3684;DHT22;1858;48.716;9.648;2022-11-20T01:32:16;6.50;99.90
3684;DHT22;1858;48.716;9.648;2022-11-20T01:34:45;6.60;99.90
3684;DHT22;1858;48.716;9.648;2022-11-20T01:37:13;6.60;99.90
3684;DHT22;1858;48.716;9.648;2022-11-20T01:39:41;6.70;99.90
3684;DHT22;1858;48.716;9.648;2022-11-20T01:42:10;6.60;99.90
3684;DHT22;1858;48.716;9.648;2022-11-20T01:44:58;6.60;77.10
3684;DHT22;1858;48.716;9.648;2022-11-20T01:47:46;6.60;91.30
3684;DHT22;1858;48.716;9.648;2022-11-20T01:50:25;6.60;94.30
3684;DHT22;1858;48.716;9.648;2022-11-20T01:58:38;6.60;99.90
3684;DHT22;1858;48.716;9.648;2022-11-20T02:01:06;6.60;88.50
3684;DHT22;1858;48.716;9.648;2022-11-20T02:03:36;6.60;73.50
3684;DHT22;1858;48.716;9.648;2022-11-20T02:06:12;6.70;99.90
3684;DHT22;1858;48.716;9.648;2022-11-20T02:08:41;6.60;63.10
3684;DHT22;1858;48.716;9.648;2022-11-20T02:11:09;6.60;65.10
3684;DHT22;1858;48.716;9.648;2022-11-20T02:13:40;6.60;68.90
3684;DHT22;1858;48.716;9.648;2022-11-20T02:16:21;6.70;90.60
3684;DHT22;1858;48.716;9.648;2022-11-20T02:18:44;6.70;55.10
3684;DHT22;1858;48.716;9.648;2022-11-20T02:21:18;6.70;39.10
3684;DHT22;1858;48.716;9.648;2022-11-20T02:29:53;6.50;1.00
3684;DHT22;1858;48.716;9.648;2022-11-20T02:32:32;6.50;18.00
3684;DHT22;1858;48.716;9.648;2022-11-20T02:34:56;6.50;27.40
3684;DHT22;1858;48.716;9.648;2022-11-20T02:37:28;6.50;38.00
3684;DHT22;1858;48.716;9.648;2022-11-20T02:39:56;6.60;51.50
3684;DHT22;1858;48.716;9.648;2022-11-20T02:42:24;6.60;55.20
3684;DHT22;1858;48.716;9.648;2022-11-20T02:44:53;6.70;61.70
3684;DHT22;1858;48.716;9.648;2022-11-20T02:47:21;6.70;23.60
3684;DHT22;1858;48.716;9.648;2022-11-20T02:49:49;6.60;1.00
3684;DHT22;1858;48.716;9.648;2022-11-20T02:52:37;6.60;1.00
3684;DHT22;1858;48.716;9.648;2022-11-20T02:55:06;6.60;1.00
3684;DHT22;1858;48.716;9.648;2022-11-20T02:57:34;6.50;1.00
3684;DHT22;1858;48.716;9.648;2022-11-20T03:00:04;6.40;1.00
3684;DHT22;1858;48.716;9.648;2022-11-20T03:02:34;6.30;1.00
3684;DHT22;1858;48.716;9.648;2022-11-20T03:05:22;6.30;1.00
3684;DHT22;1858;48.716;9.648;2022-11-20T03:07:50;6.10;1.00
3684;DHT22;1858;48.716;9.648;2022-11-20T03:10:19;6.00;1.00
3684;DHT22;1858;48.716;9.648;2022-11-20T03:12:47;6.00;1.00
3684;DHT22;1858;48.716;9.648;2022-11-20T03:15:17;5.90;1.00
3684;DHT22;1858;48.716;9.648;2022-11-20T03:17:45;5.90;20.70
3684;DHT22;1858;48.716;9.648;2022-11-20T03:20:14;6.00;99.90
3684;DHT22;1858;48.716;9.648;2022-11-20T03:22:42;6.00;99.90
3684;DHT22;1858;48.716;9.648;2022-11-20T03:25:10;6.20;99.90
3684;DHT22;1858;48.716;9.648;2022-11-20T03:27:39;6.10;99.90
3684;DHT22;1858;48.716;9.648;2022-11-20T03:30:08;6.20;99.90
3684;DHT22;1858;48.716;9.648;2022-11-20T03:32:37;6.30;99.90
3684;DHT22;1858;48.716;9.648;2022-11-20T03:35:05;6.30;99.90
3684;DHT22;1858;48.716;9.648;2022-11-20T03:37:34;6.40;99.90
3684;DHT22;1858;48.716;9.648;2022-11-20T03:40:02;6.50;99.90
3684;DHT22;1858;48.716;9.648;2022-11-20T03:42:31;6.50;99.90
3684;DHT22;1858;48.716;9.648;2022-11-20T03:45:18;6.60;99.90
3684;DHT22;1858;48.716;9.648;2022-11-20T03:47:47;6.70;99.90
3684;DHT22;1858;48.716;9.648;2022-11-20T03:50:15;6.70;38.10
3684;DHT22;1858;48.716;9.648;2022-11-20T03:52:44;6.70;34.30
3684;DHT22;1858;48.716;9.648;2022-11-20T03:55:31;6.70;1.50
3684;DHT22;1858;48.716;9.648;2022-11-20T03:58:00;6.80;1.00
3684;DHT22;1858;48.716;9.648;2022-11-20T04:00:28;6.80;1.00
3684;DHT22;1858;48.716;9.648;2022-11-20T04:03:01;6.80;1.00
3684;DHT22;1858;48.716;9.648;2022-11-20T04:05:30;6.80;1.00
3684;DHT22;1858;48.716;9.648;2022-11-20T04:08:00;6.80;1.00
3684;DHT22;1858;48.716;9.648;2022-11-20T04:10:28;6.80;1.00
3684;DHT22;1858;48.716;9.648;2022-11-20T04:12:57;6.80;1.00
3684;DHT22;1858;48.716;9.648;2022-11-20T04:15:25;6.90;1.00
3684;DHT22;1858;48.716;9.648;2022-11-20T04:17:54;6.90;1.00
3684;DHT22;1858;48.716;9.648;2022-11-20T04:20:23;6.80;1.00
3684;DHT22;1858;48.716;9.648;2022-11-20T04:22:53;6.80;1.00
3684;DHT22;1858;48.716;9.648;2022-11-20T04:25:22;6.80;1.00
3684;DHT22;1858;48.716;9.648;2022-11-20T04:27:50;6.80;1.00
3684;DHT22;1858;48.716;9.648;2022-11-20T04:30:18;6.70;1.00
3684;DHT22;1858;48.716;9.648;2022-11-20T04:32:47;6.70;1.00
3684;DHT22;1858;48.716;9.648;2022-11-20T04:35:15;6.70;1.00
3684;DHT22;1858;48.716;9.648;2022-11-20T04:38:03;6.60;1.00
3684;DHT22;1858;48.716;9.648;2022-11-20T04:40:31;6.60;1.00
3684;DHT22;1858;48.716;9.648;2022-11-20T04:43:19;6.60;1.00
3684;DHT22;1858;48.716;9.648;2022-11-20T04:45:52;6.70;1.00
3684;DHT22;1858;48.716;9.648;2022-11-20T04:48:22;6.70;1.00
3684;DHT22;1858;48.716;9.648;2022-11-20T04:50:51;6.70;1.00
3684;DHT22;1858;48.716;9.648;2022-11-20T04:53:20;6.70;1.00
3684;DHT22;1858;48.716;9.648;2022-11-20T04:55:49;6.80;1.00
3684;DHT22;1858;48.716;9.648;2022-11-20T04:58:18;6.90;1.00
3684;DHT22;1858;48.716;9.648;2022-11-20T05:00:46;6.80;1.00
3684;DHT22;1858;48.716;9.648;2022-11-20T05:03:14;6.80;1.00
3684;DHT22;1858;48.716;9.648;2022-11-20T05:05:43;6.80;1.00
3684;DHT22;1858;48.716;9.648;2022-11-20T05:08:11;6.90;1.00
3684;DHT22;1858;48.716;9.648;2022-11-20T05:10:39;6.90;1.00
3684;DHT22;1858;48.716;9.648;2022-11-20T05:13:08;6.90;1.00
3684;DHT22;1858;48.716;9.648;2022-11-20T05:15:36;6.90;1.00
3684;DHT22;1858;48.716;9.648;2022-11-20T05:21:00;6.90;1.00
3684;DHT22;1858;48.716;9.648;2022-11-20T05:23:30;7.00;1.00
3684;DHT22;1858;48.716;9.648;2022-11-20T05:25:59;7.10;1.00
3684;DHT22;1858;48.716;9.648;2022-11-20T05:28:29;7.10;1.00
3684;DHT22;1858;48.716;9.648;2022-11-20T05:31:06;7.10;1.00
3684;DHT22;1858;48.716;9.648;2022-11-20T05:33:35;7.10;1.00
3684;DHT22;1858;48.716;9.648;2022-11-20T05:36:04;7.10;1.00
3684;DHT22;1858;48.716;9.648;2022-11-20T05:38:33;7.10;1.00
3684;DHT22;1858;48.716;9.648;2022-11-20T05:41:06;7.10;1.00
3684;DHT22;1858;48.716;9.648;2022-11-20T05:43:36;7.00;1.00
3684;DHT22;1858;48.716;9.648;2022-11-20T05:46:19;7.10;1.00
3684;DHT22;1858;48.716;9.648;2022-11-20T05:49:07;7.10;1.00
3684;DHT22;1858;48.716;9.648;2022-11-20T05:51:36;7.20;1.00
3684;DHT22;1858;48.716;9.648;2022-11-20T05:54:04;7.20;1.00
3684;DHT22;1858;48.716;9.648;2022-11-20T05:56:32;7.20;1.00
3684;DHT22;1858;48.716;9.648;2022-11-20T05:59:01;7.30;1.00
3684;DHT22;1858;48.716;9.648;2022-11-20T06:01:29;7.30;1.00
3684;DHT22;1858;48.716;9.648;2022-11-20T06:03:57;7.40;1.00
3684;DHT22;1858;48.716;9.648;2022-11-20T06:06:26;7.40;1.00
3684;DHT22;1858;48.716;9.648;2022-11-20T06:08:55;7.40;1.00
3684;DHT22;1858;48.716;9.648;2022-11-20T06:11:23;7.40;1.00
3684;DHT22;1858;48.716;9.648;2022-11-20T06:13:52;7.50;1.00
3684;DHT22;1858;48.716;9.648;2022-11-20T06:16:20;7.50;1.00
3684;DHT22;1858;48.716;9.648;2022-11-20T06:18:49;7.60;1.00
3684;DHT22;1858;48.716;9.648;2022-11-20T06:21:19;7.60;99.90
3684;DHT22;1858;48.716;9.648;2022-11-20T06:23:49;7.60;99.90
3684;DHT22;1858;48.716;9.648;2022-11-20T06:26:20;7.60;99.90
3684;DHT22;1858;48.716;9.648;2022-11-20T06:28:49;7.60;99.90
3684;DHT22;1858;48.716;9.648;2022-11-20T06:31:19;7.60;1.40
3684;DHT22;1858;48.716;9.648;2022-11-20T06:33:49;7.60;99.90
3684;DHT22;1858;48.716;9.648;2022-11-20T06:36:19;7.70;1.00
3684;DHT22;1858;48.716;9.648;2022-11-20T06:38:48;7.70;99.90
3684;DHT22;1858;48.716;9.648;2022-11-20T06:41:19;7.70;99.90
3684;DHT22;1858;48.716;9.648;2022-11-20T06:43:48;7.70;99.90
3684;DHT22;1858;48.716;9.648;2022-11-20T06:46:17;7.70;99.90
3684;DHT22;1858;48.716;9.648;2022-11-20T06:48:47;7.70;99.90
3684;DHT22;1858;48.716;9.648;2022-11-20T06:51:16;7.60;99.90
3684;DHT22;1858;48.716;9.648;2022-11-20T06:53:44;7.60;99.90
3684;DHT22;1858;48.716;9.648;2022-11-20T06:56:13;7.70;99.90
3684;DHT22;1858;48.716;9.648;2022-11-20T06:58:41;7.70;99.90
3684;DHT22;1858;48.716;9.648;2022-11-20T07:01:11;7.70;99.90
3684;DHT22;1858;48.716;9.648;2022-11-20T07:03:41;7.70;99.90
3684;DHT22;1858;48.716;9.648;2022-11-20T07:06:10;7.70;99.90
3684;DHT22;1858;48.716;9.648;2022-11-20T07:08:39;7.70;99.90
3684;DHT22;1858;48.716;9.648;2022-11-20T07:11:11;7.80;99.90
3684;DHT22;1858;48.716;9.648;2022-11-20T07:13:40;7.60;99.90
3684;DHT22;1858;48.716;9.648;2022-11-20T07:16:10;7.70;99.90
3684;DHT22;1858;48.716;9.648;2022-11-20T07:18:40;7.70;99.90
3684;DHT22;1858;48.716;9.648;2022-11-20T07:21:10;7.70;99.90
3684;DHT22;1858;48.716;9.648;2022-11-20T07:23:43;7.70;99.90
3684;DHT22;1858;48.716;9.648;2022-11-20T07:26:11;7.70;99.90
3684;DHT22;1858;48.716;9.648;2022-11-20T07:28:40;7.70;99.90
3684;DHT22;1858;48.716;9.648;2022-11-20T07:31:08;7.70;99.90
3684;DHT22;1858;48.716;9.648;2022-11-20T07:33:37;7.80;99.90
3684;DHT22;1858;48.716;9.648;2022-11-20T07:36:05;7.80;99.90
3684;DHT22;1858;48.716;9.648;2022-11-20T07:38:34;7.80;99.90
3684;DHT22;1858;48.716;9.648;2022-11-20T07:41:03;7.80;99.90
3684;DHT22;1858;48.716;9.648;2022-11-20T07:43:34;7.80;99.90
3684;DHT22;1858;48.716;9.648;2022-11-20T07:46:04;7.90;99.90
3684;DHT22;1858;48.716;9.648;2022-11-20T07:48:33;7.80;99.90
3684;DHT22;1858;48.716;9.648;2022-11-20T07:51:03;7.80;99.90
3684;DHT22;1858;48.716;9.648;2022-11-20T07:53:31;7.80;99.90
3684;DHT22;1858;48.716;9.648;2022-11-20T07:56:01;7.90;99.90
3684;DHT22;1858;48.716;9.648;2022-11-20T08:01:19;7.90;99.90
3684;DHT22;1858;48.716;9.648;2022-11-20T08:03:47;8.00;99.90
3684;DHT22;1858;48.716;9.648;2022-11-20T08:06:16;8.00;99.90
3684;DHT22;1858;48.716;9.648;2022-11-20T08:08:45;8.10;99.90
3684;DHT22;1858;48.716;9.648;2022-11-20T08:11:14;8.10;99.90
3684;DHT22;1858;48.716;9.648;2022-11-20T08:14:00;8.00;99.90
3684;DHT22;1858;48.716;9.648;2022-11-20T08:17:01;8.00;99.90
3684;DHT22;1858;48.716;9.648;2022-11-20T08:19:29;8.10;99.90
3684;DHT22;1858;48.716;9.648;2022-11-20T08:21:58;8.00;99.90
3684;DHT22;1858;48.716;9.648;2022-11-20T08:24:26;8.10;99.90
3684;DHT22;1858;48.716;9.648;2022-11-20T08:27:14;8.10;99.90
3684;DHT22;1858;48.716;9.648;2022-11-20T08:29:42;8.10;99.90
3684;DHT22;1858;48.716;9.648;2022-11-20T08:32:11;8.10;99.90
3684;DHT22;1858;48.716;9.648;2022-11-20T08:34:39;8.20;99.90
3684;DHT22;1858;48.716;9.648;2022-11-20T08:37:07;8.20;99.90
3684;DHT22;1858;48.716;9.648;2022-11-20T08:39:36;8.30;99.90
3684;DHT22;1858;48.716;9.648;2022-11-20T08:42:09;8.30;99.90
3684;DHT22;1858;48.716;9.648;2022-11-20T08:44:37;8.30;99.90
3684;DHT22;1858;48.716;9.648;2022-11-20T08:47:05;8.20;99.90
3684;DHT22;1858;48.716;9.648;2022-11-20T08:49:34;8.10;99.90
3684;DHT22;1858;48.716;9.648;2022-11-20T08:52:02;8.10;99.90
3684;DHT22;1858;48.716;9.648;2022-11-20T08:54:30;8.20;99.90
3684;DHT22;1858;48.716;9.648;2022-11-20T08:56:59;8.20;99.90
3684;DHT22;1858;48.716;9.648;2022-11-20T08:59:27;8.20;99.90
3684;DHT22;1858;48.716;9.648;2022-11-20T09:01:56;8.30;99.90
3684;DHT22;1858;48.716;9.648;2022-11-20T09:04:24;8.30;99.90
3684;DHT22;1858;48.716;9.648;2022-11-20T09:06:52;8.30;99.90
3684;DHT22;1858;48.716;9.648;2022-11-20T09:09:21;8.30;99.90
3684;DHT22;1858;48.716;9.648;2022-11-20T09:11:49;8.30;99.90
3684;DHT22;1858;48.716;9.648;2022-11-20T09:14:17;8.30;99.90
3684;DHT22;1858;48.716;9.648;2022-11-20T09:16:46;8.20;99.90
3684;DHT22;1858;48.716;9.648;2022-11-20T09:19:14;8.20;99.90
3684;DHT22;1858;48.716;9.648;2022-11-20T09:21:43;8.20;99.90
3684;DHT22;1858;48.716;9.648;2022-11-20T09:24:11;8.10;99.90
3684;DHT22;1858;48.716;9.648;2022-11-20T09:26:39;8.10;99.90
3684;DHT22;1858;48.716;9.648;2022-11-20T09:29:08;8.10;99.90
3684;DHT22;1858;48.716;9.648;2022-11-20T09:31:36;8.10;99.90
3684;DHT22;1858;48.716;9.648;2022-11-20T09:34:05;8.10;99.90
3684;DHT22;1858;48.716;9.648;2022-11-20T09:36:33;8.10;99.90
3684;DHT22;1858;48.716;9.648;2022-11-20T09:39:02;8.10;99.90
3684;DHT22;1858;48.716;9.648;2022-11-20T09:41:51;8.10;99.90
3684;DHT22;1858;48.716;9.648;2022-11-20T09:47:01;8.30;99.90
3684;DHT22;1858;48.716;9.648;2022-11-20T09:55:12;8.40;99.90
3684;DHT22;1858;48.716;9.648;2022-11-20T09:57:44;8.40;99.90
3684;DHT22;1858;48.716;9.648;2022-11-20T10:00:14;8.40;99.90
3684;DHT22;1858;48.716;9.648;2022-11-20T10:25:43;8.50;99.90
3684;DHT22;1858;48.716;9.648;2022-11-20T10:28:42;8.50;99.90
3684;DHT22;1858;48.716;9.648;2022-11-20T10:31:00;8.60;99.90
3684;DHT22;1858;48.716;9.648;2022-11-20T10:33:44;8.50;99.90
3684;DHT22;1858;48.716;9.648;2022-11-20T10:36:30;8.50;99.90
3684;DHT22;1858;48.716;9.648;2022-11-20T10:41:49;8.70;99.90
3684;DHT22;1858;48.716;9.648;2022-11-20T10:44:26;8.70;99.90
3684;DHT22;1858;48.716;9.648;2022-11-20T10:47:15;8.70;99.90
3684;DHT22;1858;48.716;9.648;2022-11-20T10:49:46;8.50;99.90
3684;DHT22;1858;48.716;9.648;2022-11-20T10:58:13;8.50;99.90
3684;DHT22;1858;48.716;9.648;2022-11-20T11:00:40;8.50;99.90
3684;DHT22;1858;48.716;9.648;2022-11-20T11:08:56;8.50;99.90
3684;DHT22;1858;48.716;9.648;2022-11-20T11:11:30;8.50;99.90
3684;DHT22;1858;48.716;9.648;2022-11-20T11:14:13;8.30;99.90
3684;DHT22;1858;48.716;9.648;2022-11-20T11:17:01;8.20;99.90
3684;DHT22;1858;48.716;9.648;2022-11-20T11:19:30;8.10;99.90
3684;DHT22;1858;48.716;9.648;2022-11-20T11:21:58;8.10;1.00
3684;DHT22;1858;48.716;9.648;2022-11-20T11:24:29;8.10;1.00
3684;DHT22;1858;48.716;9.648;2022-11-20T11:27:17;8.10;1.00
3684;DHT22;1858;48.716;9.648;2022-11-20T11:30:12;8.00;1.00
3684;DHT22;1858;48.716;9.648;2022-11-20T11:32:41;8.00;1.00
3684;DHT22;1858;48.716;9.648;2022-11-20T11:37:51;8.00;1.00
3684;DHT22;1858;48.716;9.648;2022-11-20T11:40:22;8.10;1.00
3684;DHT22;1858;48.716;9.648;2022-11-20T11:42:54;8.10;1.00
3684;DHT22;1858;48.716;9.648;2022-11-20T11:45:22;8.00;1.00
3684;DHT22;1858;48.716;9.648;2022-11-20T11:48:11;8.00;1.00
3684;DHT22;1858;48.716;9.648;2022-11-20T11:53:30;8.00;1.00
3684;DHT22;1858;48.716;9.648;2022-11-20T11:58:52;8.10;1.00
3684;DHT22;1858;48.716;9.648;2022-11-20T12:01:38;8.20;1.00
3684;DHT22;1858;48.716;9.648;2022-11-20T12:06:42;8.40;3.70
3684;DHT22;1858;48.716;9.648;2022-11-20T12:09:12;8.50;15.40
3684;DHT22;1858;48.716;9.648;2022-11-20T12:12:02;8.60;24.40
3684;DHT22;1858;48.716;9.648;2022-11-20T12:17:24;8.90;1.00
3684;DHT22;1858;48.716;9.648;2022-11-20T12:19:53;9.20;1.00
3684;DHT22;1858;48.716;9.648;2022-11-20T12:22:31;9.20;1.00
3684;DHT22;1858;48.716;9.648;2022-11-20T12:25:02;9.20;1.00
3684;DHT22;1858;48.716;9.648;2022-11-20T12:33:42;9.20;1.00
3684;DHT22;1858;48.716;9.648;2022-11-20T12:39:15;9.20;1.00
3684;DHT22;1858;48.716;9.648;2022-11-20T12:42:08;9.20;99.90
3684;DHT22;1858;48.716;9.648;2022-11-20T12:45:06;9.20;99.90
3684;DHT22;1858;48.716;9.648;2022-11-20T12:51:11;9.00;1.00
3684;DHT22;1858;48.716;9.648;2022-11-20T12:57:24;8.90;1.00
3684;DHT22;1858;48.716;9.648;2022-11-20T13:06:05;8.90;1.00
3684;DHT22;1858;48.716;9.648;2022-11-20T13:08:36;8.90;1.00
3684;DHT22;1858;48.716;9.648;2022-11-20T13:14:34;9.20;1.00
3684;DHT22;1858;48.716;9.648;2022-11-20T13:17:05;9.30;1.00
3684;DHT22;1858;48.716;9.648;2022-11-20T13:19:55;9.40;99.90
3684;DHT22;1858;48.716;9.648;2022-11-20T13:22:42;9.50;99.90
3684;DHT22;1858;48.716;9.648;2022-11-20T13:24:59;9.50;99.90
3684;DHT22;1858;48.716;9.648;2022-11-20T13:27:28;9.60;99.90
3684;DHT22;1858;48.716;9.648;2022-11-20T13:30:16;9.70;99.90
3684;DHT22;1858;48.716;9.648;2022-11-20T13:33:21;9.70;99.90
3684;DHT22;1858;48.716;9.648;2022-11-20T13:35:42;9.80;99.90
3684;DHT22;1858;48.716;9.648;2022-11-20T13:38:13;9.80;99.90
3684;DHT22;1858;48.716;9.648;2022-11-20T13:49:33;9.70;99.90
3684;DHT22;1858;48.716;9.648;2022-11-20T13:58:29;9.40;99.90
3684;DHT22;1858;48.716;9.648;2022-11-20T14:01:17;9.30;99.90
3684;DHT22;1858;48.716;9.648;2022-11-20T14:03:47;9.20;99.90
3684;DHT22;1858;48.716;9.648;2022-11-20T14:06:30;9.40;99.90
3684;DHT22;1858;48.716;9.648;2022-11-20T14:09:25;9.30;99.90
3684;DHT22;1858;48.716;9.648;2022-11-20T14:11:54;9.30;99.90
3684;DHT22;1858;48.716;9.648;2022-11-20T14:14:29;9.20;99.90
3684;DHT22;1858;48.716;9.648;2022-11-20T14:19:41;9.20;99.90
3684;DHT22;1858;48.716;9.648;2022-11-20T14:22:17;9.30;99.90
3684;DHT22;1858;48.716;9.648;2022-11-20T14:27:37;9.30;95.30
3684;DHT22;1858;48.716;9.648;2022-11-20T14:30:20;9.30;99.90
3684;DHT22;1858;48.716;9.648;2022-11-20T14:32:44;9.30;88.10
3684;DHT22;1858;48.716;9.648;2022-11-20T14:35:31;9.20;87.00
3684;DHT22;1858;48.716;9.648;2022-11-20T14:38:01;9.00;97.00
3684;DHT22;1858;48.716;9.648;2022-11-20T14:40:35;9.00;99.90
3684;DHT22;1858;48.716;9.648;2022-11-20T14:43:18;8.90;99.90
3684;DHT22;1858;48.716;9.648;2022-11-20T14:46:12;8.90;99.90
3684;DHT22;1858;48.716;9.648;2022-11-20T14:48:46;8.90;99.90
3684;DHT22;1858;48.716;9.648;2022-11-20T14:51:33;8.90;82.10
3684;DHT22;1858;48.716;9.648;2022-11-20T14:57:04;8.70;50.30
3684;DHT22;1858;48.716;9.648;2022-11-20T14:59:34;8.60;29.70
3684;DHT22;1858;48.716;9.648;2022-11-20T15:02:05;8.50;35.50
3684;DHT22;1858;48.716;9.648;2022-11-20T15:04:45;8.50;35.10
3684;DHT22;1858;48.716;9.648;2022-11-20T15:07:26;8.40;31.80
3684;DHT22;1858;48.716;9.648;2022-11-20T15:10:22;8.30;25.50
3684;DHT22;1858;48.716;9.648;2022-11-20T15:13:13;8.30;35.30
3684;DHT22;1858;48.716;9.648;2022-11-20T15:18:39;8.00;28.30
3684;DHT22;1858;48.716;9.648;2022-11-20T15:21:12;7.90;39.50
3684;DHT22;1858;48.716;9.648;2022-11-20T15:24:00;7.90;39.10
3684;DHT22;1858;48.716;9.648;2022-11-20T15:26:29;7.90;55.40
3684;DHT22;1858;48.716;9.648;2022-11-20T15:28:59;7.80;53.10
3684;DHT22;1858;48.716;9.648;2022-11-20T15:31:27;7.80;72.70
3684;DHT22;1858;48.716;9.648;2022-11-20T15:33:55;7.90;87.10
3684;DHT22;1858;48.716;9.648;2022-11-20T15:36:24;8.00;83.60
3684;DHT22;1858;48.716;9.648;2022-11-20T15:38:52;8.00;77.10
3684;DHT22;1858;48.716;9.648;2022-11-20T15:41:20;7.90;79.70
3684;DHT22;1858;48.716;9.648;2022-11-20T15:43:49;8.00;88.40
3684;DHT22;1858;48.716;9.648;2022-11-20T15:46:21;8.00;98.00
3684;DHT22;1858;48.716;9.648;2022-11-20T15:48:56;8.00;97.80
3684;DHT22;1858;48.716;9.648;2022-11-20T15:51:30;7.90;98.70
3684;DHT22;1858;48.716;9.648;2022-11-20T15:53:59;7.90;93.40
3684;DHT22;1858;48.716;9.648;2022-11-20T15:56:32;8.00;93.10
3684;DHT22;1858;48.716;9.648;2022-11-20T15:59:00;8.00;74.40
3684;DHT22;1858;48.716;9.648;2022-11-20T16:01:29;7.90;80.20
3684;DHT22;1858;48.716;9.648;2022-11-20T16:03:58;7.90;85.00
3684;DHT22;1858;48.716;9.648;2022-11-20T16:06:27;7.90;99.90
3684;DHT22;1858;48.716;9.648;2022-11-20T16:08:55;7.80;99.90
3684;DHT22;1858;48.716;9.648;2022-11-20T16:11:24;7.80;99.90
3684;DHT22;1858;48.716;9.648;2022-11-20T16:13:52;7.80;99.90
3684;DHT22;1858;48.716;9.648;2022-11-20T16:16:38;7.70;99.90
3684;DHT22;1858;48.716;9.648;2022-11-20T16:19:12;7.70;99.90
3684;DHT22;1858;48.716;9.648;2022-11-20T16:24:30;7.50;99.90
3684;DHT22;1858;48.716;9.648;2022-11-20T16:26:58;7.40;99.90
3684;DHT22;1858;48.716;9.648;2022-11-20T16:29:26;7.40;99.90
3684;DHT22;1858;48.716;9.648;2022-11-20T16:31:56;7.40;99.90
3684;DHT22;1858;48.716;9.648;2022-11-20T16:34:25;7.30;99.90
3684;DHT22;1858;48.716;9.648;2022-11-20T16:36:53;7.30;99.90
3684;DHT22;1858;48.716;9.648;2022-11-20T16:39:21;7.20;99.90
3684;DHT22;1858;48.716;9.648;2022-11-20T16:41:50;7.20;99.90
3684;DHT22;1858;48.716;9.648;2022-11-20T16:44:20;7.30;99.90
3684;DHT22;1858;48.716;9.648;2022-11-20T16:46:48;7.30;99.90
3684;DHT22;1858;48.716;9.648;2022-11-20T16:49:16;7.30;99.90
3684;DHT22;1858;48.716;9.648;2022-11-20T16:51:45;7.30;99.90
3684;DHT22;1858;48.716;9.648;2022-11-20T16:54:13;7.30;99.90
3684;DHT22;1858;48.716;9.648;2022-11-20T16:56:43;7.30;99.90
3684;DHT22;1858;48.716;9.648;2022-11-20T16:59:13;7.30;99.90
3684;DHT22;1858;48.716;9.648;2022-11-20T17:01:41;7.30;99.90
3684;DHT22;1858;48.716;9.648;2022-11-20T17:04:10;7.30;99.90
3684;DHT22;1858;48.716;9.648;2022-11-20T17:06:41;7.30;99.90
3684;DHT22;1858;48.716;9.648;2022-11-20T17:09:10;7.30;99.90
3684;DHT22;1858;48.716;9.648;2022-11-20T17:11:39;7.30;99.90
3684;DHT22;1858;48.716;9.648;2022-11-20T17:14:09;7.20;99.90
3684;DHT22;1858;48.716;9.648;2022-11-20T17:16:38;7.20;99.90
3684;DHT22;1858;48.716;9.648;2022-11-20T17:19:06;7.20;99.90
3684;DHT22;1858;48.716;9.648;2022-11-20T17:21:35;7.20;99.90
3684;DHT22;1858;48.716;9.648;2022-11-20T17:24:09;7.20;99.90
3684;DHT22;1858;48.716;9.648;2022-11-20T17:26:39;7.20;99.90
3684;DHT22;1858;48.716;9.648;2022-11-20T17:29:11;7.20;99.90
3684;DHT22;1858;48.716;9.648;2022-11-20T17:31:40;7.10;99.90
3684;DHT22;1858;48.716;9.648;2022-11-20T17:34:13;7.10;99.90
3684;DHT22;1858;48.716;9.648;2022-11-20T17:36:40;7.10;99.90
3684;DHT22;1858;48.716;9.648;2022-11-20T17:42:00;7.00;99.90
3684;DHT22;1858;48.716;9.648;2022-11-20T17:44:46;6.90;99.90
3684;DHT22;1858;48.716;9.648;2022-11-20T17:47:15;6.90;99.90
3684;DHT22;1858;48.716;9.648;2022-11-20T17:49:43;7.00;99.90
3684;DHT22;1858;48.716;9.648;2022-11-20T17:52:11;6.90;99.90
3684;DHT22;1858;48.716;9.648;2022-11-20T17:54:40;7.00;99.90
3684;DHT22;1858;48.716;9.648;2022-11-20T17:57:08;7.00;99.90
3684;DHT22;1858;48.716;9.648;2022-11-20T17:59:55;7.00;99.90
3684;DHT22;1858;48.716;9.648;2022-11-20T18:02:23;7.00;99.90
3684;DHT22;1858;48.716;9.648;2022-11-20T18:04:52;7.00;99.90
3684;DHT22;1858;48.716;9.648;2022-11-20T18:07:20;7.10;99.90
3684;DHT22;1858;48.716;9.648;2022-11-20T18:09:48;7.10;99.90
3684;DHT22;1858;48.716;9.648;2022-11-20T18:12:17;7.10;99.90
3684;DHT22;1858;48.716;9.648;2022-11-20T18:14:46;7.20;99.90
3684;DHT22;1858;48.716;9.648;2022-11-20T18:17:15;7.30;99.90
3684;DHT22;1858;48.716;9.648;2022-11-20T18:22:36;7.20;99.90
3684;DHT22;1858;48.716;9.648;2022-11-20T18:25:05;7.20;99.90
3684;DHT22;1858;48.716;9.648;2022-11-20T18:27:33;7.20;99.90
3684;DHT22;1858;48.716;9.648;2022-11-20T18:30:02;7.20;99.90
3684;DHT22;1858;48.716;9.648;2022-11-20T18:32:30;7.30;99.90
3684;DHT22;1858;48.716;9.648;2022-11-20T18:34:58;7.30;99.90
3684;DHT22;1858;48.716;9.648;2022-11-20T18:37:27;7.30;99.90
3684;DHT22;1858;48.716;9.648;2022-11-20T18:39:55;7.30;99.90
3684;DHT22;1858;48.716;9.648;2022-11-20T18:42:23;7.40;99.90
3684;DHT22;1858;48.716;9.648;2022-11-20T18:45:10;7.40;99.90
3684;DHT22;1858;48.716;9.648;2022-11-20T18:47:38;7.30;99.90
3684;DHT22;1858;48.716;9.648;2022-11-20T18:52:56;7.50;99.90
3684;DHT22;1858;48.716;9.648;2022-11-20T18:55:24;7.40;99.90
3684;DHT22;1858;48.716;9.648;2022-11-20T18:57:52;7.40;99.90
3684;DHT22;1858;48.716;9.648;2022-11-20T19:03:10;7.50;99.90
3684;DHT22;1858;48.716;9.648;2022-11-20T19:05:39;7.50;99.90
3684;DHT22;1858;48.716;9.648;2022-11-20T19:08:07;7.50;99.90
3684;DHT22;1858;48.716;9.648;2022-11-20T19:10:36;7.50;99.90
3684;DHT22;1858;48.716;9.648;2022-11-20T19:13:04;7.50;99.90